sensor_id;sensor_type;location;lat;lon;timestamp;pressure;altitude;pressure_sealevel;temperature;humidity
14383;BME280;7275;50.328;8.720;2024-01-10T00:02:18;101032.78;;;1.02;32.89
14383;BME280;7275;50.328;8.720;2024-01-10T00:04:46;101033.59;;;1.01;33.01
14383;BME280;7275;50.328;8.720;2024-01-10T00:07:14;101021.38;;;0.98;33.05
14383;BME280;7275;50.328;8.720;2024-01-10T00:09:41;101020.47;;;0.96;33.54
14383;BME280;7275;50.328;8.720;2024-01-10T00:12:09;101016.09;;;0.94;33.40
14383;BME280;7275;50.328;8.720;2024-01-10T00:14:38;101010.81;;;0.91;33.37
14383;BME280;7275;50.328;8.720;2024-01-10T00:17:05;101009.91;;;0.89;33.55
14383;BME280;7275;50.328;8.720;2024-01-10T00:19:33;101018.63;;;0.91;33.27
14383;BME280;7275;50.328;8.720;2024-01-10T00:22:01;101008.25;;;0.92;33.19
14383;BME280;7275;50.328;8.720;2024-01-10T00:24:28;101004.78;;;0.92;33.38
14383;BME280;7275;50.328;8.720;2024-01-10T00:26:56;101010.00;;;0.92;33.25
14383;BME280;7275;50.328;8.720;2024-01-10T00:29:23;100996.91;;;0.90;33.52
14383;BME280;7275;50.328;8.720;2024-01-10T00:31:52;100999.50;;;0.89;33.73
14383;BME280;7275;50.328;8.720;2024-01-10T00:34:20;100996.91;;;0.90;33.51
14383;BME280;7275;50.328;8.720;2024-01-10T00:36:47;101000.34;;;0.88;33.55
14383;BME280;7275;50.328;8.720;2024-01-10T00:39:15;101007.28;;;0.87;34.01
14383;BME280;7275;50.328;8.720;2024-01-10T00:41:42;101006.41;;;0.87;33.60
14383;BME280;7275;50.328;8.720;2024-01-10T00:44:10;101005.38;;;0.80;33.83
14383;BME280;7275;50.328;8.720;2024-01-10T00:46:37;100993.22;;;0.79;33.47
14383;BME280;7275;50.328;8.720;2024-01-10T00:49:06;100989.84;;;0.83;33.56
14383;BME280;7275;50.328;8.720;2024-01-10T00:51:34;100992.38;;;0.81;33.77
14383;BME280;7275;50.328;8.720;2024-01-10T00:54:02;100992.34;;;0.80;34.10
14383;BME280;7275;50.328;8.720;2024-01-10T00:56:29;100996.69;;;0.79;33.78
14383;BME280;7275;50.328;8.720;2024-01-10T00:58:57;100991.53;;;0.81;33.77
14383;BME280;7275;50.328;8.720;2024-01-10T01:01:24;100992.44;;;0.83;33.82
14383;BME280;7275;50.328;8.720;2024-01-10T01:03:52;100998.56;;;0.85;33.73
14383;BME280;7275;50.328;8.720;2024-01-10T01:06:21;101002.91;;;0.86;33.46
14383;BME280;7275;50.328;8.720;2024-01-10T01:08:49;100992.56;;;0.88;33.98
14383;BME280;7275;50.328;8.720;2024-01-10T01:11:16;100994.28;;;0.89;33.66
14383;BME280;7275;50.328;8.720;2024-01-10T01:13:44;100988.28;;;0.91;33.72
14383;BME280;7275;50.328;8.720;2024-01-10T01:16:11;100989.97;;;0.89;33.79
14383;BME280;7275;50.328;8.720;2024-01-10T01:18:39;100983.78;;;0.86;33.84
14383;BME280;7275;50.328;8.720;2024-01-10T01:21:06;100988.97;;;0.84;33.91
14383;BME280;7275;50.328;8.720;2024-01-10T01:23:35;100990.75;;;0.85;33.92
14383;BME280;7275;50.328;8.720;2024-01-10T01:26:08;100990.53;;;0.76;34.05
14383;BME280;7275;50.328;8.720;2024-01-10T01:28:36;100999.22;;;0.76;34.06
14383;BME280;7275;50.328;8.720;2024-01-10T01:31:03;100994.00;;;0.75;33.95
14383;BME280;7275;50.328;8.720;2024-01-10T01:33:31;100995.72;;;0.74;34.00
14383;BME280;7275;50.328;8.720;2024-01-10T01:35:59;100998.31;;;0.74;34.25
14383;BME280;7275;50.328;8.720;2024-01-10T01:38:26;101000.00;;;0.72;33.96
14383;BME280;7275;50.328;8.720;2024-01-10T01:40:55;100990.44;;;0.71;34.21
14383;BME280;7275;50.328;8.720;2024-01-10T01:43:24;101001.81;;;0.76;34.18
14383;BME280;7275;50.328;8.720;2024-01-10T01:45:53;100991.41;;;0.76;34.00
14383;BME280;7275;50.328;8.720;2024-01-10T01:48:22;100986.22;;;0.76;33.94
14383;BME280;7275;50.328;8.720;2024-01-10T01:50:52;100985.31;;;0.74;34.46
14383;BME280;7275;50.328;8.720;2024-01-10T01:53:22;100988.84;;;0.78;33.98
14383;BME280;7275;50.328;8.720;2024-01-10T01:55:50;100991.47;;;0.79;34.45
14383;BME280;7275;50.328;8.720;2024-01-10T01:58:19;100986.25;;;0.78;34.13
14383;BME280;7275;50.328;8.720;2024-01-10T02:00:48;100984.53;;;0.78;33.91
14383;BME280;7275;50.328;8.720;2024-01-10T02:03:15;100988.00;;;0.79;33.72
14383;BME280;7275;50.328;8.720;2024-01-10T02:05:42;100981.91;;;0.77;34.12
14383;BME280;7275;50.328;8.720;2024-01-10T02:08:10;100984.44;;;0.75;34.44
14383;BME280;7275;50.328;8.720;2024-01-10T02:10:38;100984.41;;;0.72;34.05
14383;BME280;7275;50.328;8.720;2024-01-10T02:13:06;100974.81;;;0.71;34.11
14383;BME280;7275;50.328;8.720;2024-01-10T02:15:37;100980.88;;;0.70;34.47
14383;BME280;7275;50.328;8.720;2024-01-10T02:18:04;100967.91;;;0.72;34.33
14383;BME280;7275;50.328;8.720;2024-01-10T02:20:33;100967.88;;;0.70;34.15
14383;BME280;7275;50.328;8.720;2024-01-10T02:23:00;100951.38;;;0.70;34.08
14383;BME280;7275;50.328;8.720;2024-01-10T02:25:30;100961.69;;;0.67;34.28
14383;BME280;7275;50.328;8.720;2024-01-10T02:27:57;100956.44;;;0.64;34.55
14383;BME280;7275;50.328;8.720;2024-01-10T02:30:25;100956.41;;;0.62;34.55
14383;BME280;7275;50.328;8.720;2024-01-10T02:32:53;100959.84;;;0.61;34.37
14383;BME280;7275;50.328;8.720;2024-01-10T02:35:20;100953.81;;;0.62;34.18
14383;BME280;7275;50.328;8.720;2024-01-10T02:37:48;100953.75;;;0.61;34.49
14383;BME280;7275;50.328;8.720;2024-01-10T02:40:18;100951.22;;;0.62;34.67
14383;BME280;7275;50.328;8.720;2024-01-10T02:42:46;100940.72;;;0.59;34.70
14383;BME280;7275;50.328;8.720;2024-01-10T02:45:14;100946.81;;;0.60;34.80
14383;BME280;7275;50.328;8.720;2024-01-10T02:47:41;100948.56;;;0.61;34.59
14383;BME280;7275;50.328;8.720;2024-01-10T02:50:09;100945.00;;;0.57;34.90
14383;BME280;7275;50.328;8.720;2024-01-10T02:52:37;100945.84;;;0.56;34.84
14383;BME280;7275;50.328;8.720;2024-01-10T02:55:05;100930.22;;;0.55;35.08
14383;BME280;7275;50.328;8.720;2024-01-10T02:57:33;100935.38;;;0.52;35.03
14383;BME280;7275;50.328;8.720;2024-01-10T03:00:02;100926.59;;;0.48;35.25
14383;BME280;7275;50.328;8.720;2024-01-10T03:02:31;100935.38;;;0.52;35.35
14383;BME280;7275;50.328;8.720;2024-01-10T03:04:58;100936.16;;;0.49;35.02
14383;BME280;7275;50.328;8.720;2024-01-10T03:07:26;100930.88;;;0.46;35.07
14383;BME280;7275;50.328;8.720;2024-01-10T03:09:53;100932.66;;;0.47;35.13
14383;BME280;7275;50.328;8.720;2024-01-10T03:12:21;100942.19;;;0.48;35.18
14383;BME280;7275;50.328;8.720;2024-01-10T03:14:48;100925.69;;;0.46;35.14
14383;BME280;7275;50.328;8.720;2024-01-10T03:17:17;100932.66;;;0.47;34.95
14383;BME280;7275;50.328;8.720;2024-01-10T03:19:45;100936.09;;;0.46;35.17
14383;BME280;7275;50.328;8.720;2024-01-10T03:22:12;100922.22;;;0.46;35.38
14383;BME280;7275;50.328;8.720;2024-01-10T03:24:40;100927.44;;;0.46;35.48
14383;BME280;7275;50.328;8.720;2024-01-10T03:27:07;100930.84;;;0.45;35.33
14383;BME280;7275;50.328;8.720;2024-01-10T03:29:35;100929.97;;;0.44;35.33
14383;BME280;7275;50.328;8.720;2024-01-10T03:32:03;100917.84;;;0.45;35.17
14383;BME280;7275;50.328;8.720;2024-01-10T03:34:32;100915.25;;;0.45;35.53
14383;BME280;7275;50.328;8.720;2024-01-10T03:37:00;100918.75;;;0.45;34.92
14383;BME280;7275;50.328;8.720;2024-01-10T03:39:27;100908.25;;;0.42;35.19
14383;BME280;7275;50.328;8.720;2024-01-10T03:41:55;100912.53;;;0.40;35.36
14383;BME280;7275;50.328;8.720;2024-01-10T03:44:22;100915.22;;;0.43;35.41
14383;BME280;7275;50.328;8.720;2024-01-10T03:46:50;100916.03;;;0.41;35.49
14383;BME280;7275;50.328;8.720;2024-01-10T03:49:18;100916.03;;;0.42;35.66
14383;BME280;7275;50.328;8.720;2024-01-10T03:51:47;100905.72;;;0.44;35.66
14383;BME280;7275;50.328;8.720;2024-01-10T03:54:14;100904.81;;;0.43;35.29
14383;BME280;7275;50.328;8.720;2024-01-10T03:56:42;100909.13;;;0.43;35.45
14383;BME280;7275;50.328;8.720;2024-01-10T03:59:10;100909.16;;;0.44;35.45
14383;BME280;7275;50.328;8.720;2024-01-10T04:01:37;100907.44;;;0.45;35.69
14383;BME280;7275;50.328;8.720;2024-01-10T04:04:05;100913.50;;;0.44;35.71
14383;BME280;7275;50.328;8.720;2024-01-10T04:06:33;100904.81;;;0.43;35.47
14383;BME280;7275;50.328;8.720;2024-01-10T04:09:02;100901.41;;;0.46;35.39
14383;BME280;7275;50.328;8.720;2024-01-10T04:11:30;100904.94;;;0.49;35.41
14383;BME280;7275;50.328;8.720;2024-01-10T04:13:57;100901.50;;;0.50;35.36
14383;BME280;7275;50.328;8.720;2024-01-10T04:16:25;100896.28;;;0.50;35.34
14383;BME280;7275;50.328;8.720;2024-01-10T04:18:54;100902.41;;;0.52;35.33
14383;BME280;7275;50.328;8.720;2024-01-10T04:21:22;100896.38;;;0.53;35.08
14383;BME280;7275;50.328;8.720;2024-01-10T04:23:49;100897.31;;;0.57;35.21
14383;BME280;7275;50.328;8.720;2024-01-10T04:26:19;100905.88;;;0.53;35.59
14383;BME280;7275;50.328;8.720;2024-01-10T04:28:47;100905.91;;;0.54;35.58
14383;BME280;7275;50.328;8.720;2024-01-10T04:31:15;100906.69;;;0.50;35.35
14383;BME280;7275;50.328;8.720;2024-01-10T04:33:43;100905.88;;;0.53;35.39
14383;BME280;7275;50.328;8.720;2024-01-10T04:36:10;100906.69;;;0.50;35.58
14383;BME280;7275;50.328;8.720;2024-01-10T04:38:38;100908.47;;;0.51;35.51
14383;BME280;7275;50.328;8.720;2024-01-10T04:41:05;100903.19;;;0.48;35.24
14383;BME280;7275;50.328;8.720;2024-01-10T04:43:34;100887.56;;;0.48;35.33
14383;BME280;7275;50.328;8.720;2024-01-10T04:46:02;100898.94;;;0.52;35.32
14383;BME280;7275;50.328;8.720;2024-01-10T04:48:29;100903.25;;;0.51;35.40
14383;BME280;7275;50.328;8.720;2024-01-10T04:50:57;100911.97;;;0.53;35.87
14383;BME280;7275;50.328;8.720;2024-01-10T04:53:25;100918.91;;;0.53;35.99
14383;BME280;7275;50.328;8.720;2024-01-10T04:55:52;100913.59;;;0.48;35.88
14383;BME280;7275;50.328;8.720;2024-01-10T04:58:20;100911.84;;;0.47;35.89
14383;BME280;7275;50.328;8.720;2024-01-10T05:00:49;100908.31;;;0.44;35.67
14383;BME280;7275;50.328;8.720;2024-01-10T05:03:16;100903.94;;;0.43;35.47
14383;BME280;7275;50.328;8.720;2024-01-10T05:05:44;100899.63;;;0.43;35.80
14383;BME280;7275;50.328;8.720;2024-01-10T05:08:11;100907.41;;;0.43;36.42
14383;BME280;7275;50.328;8.720;2024-01-10T05:10:39;100902.13;;;0.39;35.91
14383;BME280;7275;50.328;8.720;2024-01-10T05:13:07;100897.78;;;0.39;36.03
14383;BME280;7275;50.328;8.720;2024-01-10T05:15:34;100900.34;;;0.38;36.07
14383;BME280;7275;50.328;8.720;2024-01-10T05:18:04;100906.31;;;0.34;35.89
14383;BME280;7275;50.328;8.720;2024-01-10T05:20:31;100903.81;;;0.37;36.08
14383;BME280;7275;50.328;8.720;2024-01-10T05:22:59;100900.34;;;0.38;36.07
14383;BME280;7275;50.328;8.720;2024-01-10T05:25:28;100913.41;;;0.39;36.11
14383;BME280;7275;50.328;8.720;2024-01-10T05:27:56;100908.19;;;0.39;36.04
14383;BME280;7275;50.328;8.720;2024-01-10T05:30:23;100906.53;;;0.43;35.80
14383;BME280;7275;50.328;8.720;2024-01-10T05:32:54;100900.50;;;0.44;36.17
14383;BME280;7275;50.328;8.720;2024-01-10T05:35:24;100903.16;;;0.47;35.85
14383;BME280;7275;50.328;8.720;2024-01-10T05:37:52;100898.03;;;0.50;35.99
14383;BME280;7275;50.328;8.720;2024-01-10T05:40:20;100899.84;;;0.54;35.96
14383;BME280;7275;50.328;8.720;2024-01-10T05:42:48;100903.41;;;0.57;35.79
14383;BME280;7275;50.328;8.720;2024-01-10T05:45:15;100901.56;;;0.53;35.78
14383;BME280;7275;50.328;8.720;2024-01-10T05:47:44;100902.41;;;0.52;35.98
14383;BME280;7275;50.328;8.720;2024-01-10T05:50:12;100909.41;;;0.55;36.03
14383;BME280;7275;50.328;8.720;2024-01-10T05:52:41;100908.50;;;0.54;35.69
14383;BME280;7275;50.328;8.720;2024-01-10T05:55:12;100904.19;;;0.53;35.57
14383;BME280;7275;50.328;8.720;2024-01-10T05:57:39;100909.41;;;0.55;35.88
14383;BME280;7275;50.328;8.720;2024-01-10T06:00:08;100907.78;;;0.58;35.65
14383;BME280;7275;50.328;8.720;2024-01-10T06:02:36;100899.03;;;0.56;35.72
14383;BME280;7275;50.328;8.720;2024-01-10T06:05:06;100896.41;;;0.56;36.18
14383;BME280;7275;50.328;8.720;2024-01-10T06:07:33;100896.47;;;0.58;35.95
14383;BME280;7275;50.328;8.720;2024-01-10T06:10:03;100902.47;;;0.55;35.83
14383;BME280;7275;50.328;8.720;2024-01-10T06:12:31;100900.69;;;0.53;35.93
14383;BME280;7275;50.328;8.720;2024-01-10T06:14:59;100887.53;;;0.45;36.11
14383;BME280;7275;50.328;8.720;2024-01-10T06:17:27;100887.53;;;0.45;36.03
14383;BME280;7275;50.328;8.720;2024-01-10T06:19:54;100888.34;;;0.44;36.30
14383;BME280;7275;50.328;8.720;2024-01-10T06:22:22;100890.91;;;0.41;36.01
14383;BME280;7275;50.328;8.720;2024-01-10T06:24:55;100887.41;;;0.41;36.38
14383;BME280;7275;50.328;8.720;2024-01-10T06:27:23;100895.31;;;0.44;36.03
14383;BME280;7275;50.328;8.720;2024-01-10T06:29:51;100878.72;;;0.39;36.05
14383;BME280;7275;50.328;8.720;2024-01-10T06:32:19;100886.47;;;0.37;36.72
14383;BME280;7275;50.328;8.720;2024-01-10T06:34:46;100892.47;;;0.33;36.48
14383;BME280;7275;50.328;8.720;2024-01-10T06:37:14;100894.28;;;0.37;36.28
14383;BME280;7275;50.328;8.720;2024-01-10T06:39:42;100889.09;;;0.37;36.70
14383;BME280;7275;50.328;8.720;2024-01-10T06:42:10;100892.50;;;0.36;36.52
14383;BME280;7275;50.328;8.720;2024-01-10T06:44:39;100893.38;;;0.35;36.25
14383;BME280;7275;50.328;8.720;2024-01-10T06:47:07;100889.03;;;0.36;36.68
14383;BME280;7275;50.328;8.720;2024-01-10T06:49:36;100902.94;;;0.38;36.46
14383;BME280;7275;50.328;8.720;2024-01-10T06:52:05;100908.19;;;0.39;36.46
14383;BME280;7275;50.328;8.720;2024-01-10T06:54:33;100904.69;;;0.37;36.59
14383;BME280;7275;50.328;8.720;2024-01-10T06:57:01;100905.50;;;0.35;36.97
14383;BME280;7275;50.328;8.720;2024-01-10T06:59:29;100905.50;;;0.36;36.73
14383;BME280;7275;50.328;8.720;2024-01-10T07:01:58;100909.81;;;0.34;36.96
14383;BME280;7275;50.328;8.720;2024-01-10T07:04:27;100911.59;;;0.37;36.82
14383;BME280;7275;50.328;8.720;2024-01-10T07:06:55;100912.44;;;0.36;36.71
14383;BME280;7275;50.328;8.720;2024-01-10T07:09:23;100914.22;;;0.38;37.02
14383;BME280;7275;50.328;8.720;2024-01-10T07:11:50;100913.28;;;0.35;36.99
14383;BME280;7275;50.328;8.720;2024-01-10T07:14:19;100911.59;;;0.37;37.11
14383;BME280;7275;50.328;8.720;2024-01-10T07:16:46;100908.91;;;0.34;37.33
14383;BME280;7275;50.328;8.720;2024-01-10T07:19:16;100913.25;;;0.33;37.15
14383;BME280;7275;50.328;8.720;2024-01-10T07:21:44;100916.81;;;0.38;37.16
14383;BME280;7275;50.328;8.720;2024-01-10T07:24:11;100917.69;;;0.37;37.66
14383;BME280;7275;50.328;8.720;2024-01-10T07:26:39;100920.41;;;0.43;37.06
14383;BME280;7275;50.328;8.720;2024-01-10T07:29:07;100923.13;;;0.48;37.20
14383;BME280;7275;50.328;8.720;2024-01-10T07:31:36;100926.66;;;0.51;36.96
14383;BME280;7275;50.328;8.720;2024-01-10T07:34:04;100928.34;;;0.49;37.35
14383;BME280;7275;50.328;8.720;2024-01-10T07:36:41;100931.09;;;0.55;37.08
14383;BME280;7275;50.328;8.720;2024-01-10T07:39:09;100946.00;;;0.62;36.72
14383;BME280;7275;50.328;8.720;2024-01-10T07:41:37;100936.66;;;0.70;36.98
14383;BME280;7275;50.328;8.720;2024-01-10T07:44:05;100943.69;;;0.76;36.84
14383;BME280;7275;50.328;8.720;2024-01-10T07:46:33;100949.00;;;0.80;36.90
14383;BME280;7275;50.328;8.720;2024-01-10T07:49:00;100948.25;;;0.86;36.86
14383;BME280;7275;50.328;8.720;2024-01-10T07:51:28;100946.63;;;0.90;36.82
14383;BME280;7275;50.328;8.720;2024-01-10T07:53:57;100941.53;;;0.96;36.74
14383;BME280;7275;50.328;8.720;2024-01-10T07:56:25;100948.59;;;1.03;36.67
14383;BME280;7275;50.328;8.720;2024-01-10T07:58:53;100954.78;;;1.06;36.69
14383;BME280;7275;50.328;8.720;2024-01-10T08:01:22;100953.13;;;1.11;36.83
14383;BME280;7275;50.328;8.720;2024-01-10T08:03:49;100962.84;;;1.18;36.99
14383;BME280;7275;50.328;8.720;2024-01-10T08:06:17;100948.16;;;1.23;36.54
14383;BME280;7275;50.328;8.720;2024-01-10T08:08:55;100956.97;;;1.28;36.62
14383;BME280;7275;50.328;8.720;2024-01-10T08:11:24;100952.69;;;1.32;36.88
14383;BME280;7275;50.328;8.720;2024-01-10T08:13:52;100953.78;;;1.43;36.70
14383;BME280;7275;50.328;8.720;2024-01-10T08:16:19;100960.78;;;1.47;36.70
14383;BME280;7275;50.328;8.720;2024-01-10T08:18:47;100962.69;;;1.55;36.40
14383;BME280;7275;50.328;8.720;2024-01-10T08:21:15;100965.41;;;1.61;36.31
14383;BME280;7275;50.328;8.720;2024-01-10T08:23:42;100967.34;;;1.72;36.34
14383;BME280;7275;50.328;8.720;2024-01-10T08:26:10;100964.00;;;1.77;36.49
14383;BME280;7275;50.328;8.720;2024-01-10T08:28:39;100967.72;;;1.91;36.46
14383;BME280;7275;50.328;8.720;2024-01-10T08:31:07;100967.03;;;2.01;36.49
14383;BME280;7275;50.328;8.720;2024-01-10T08:33:34;100966.34;;;2.13;36.49
14383;BME280;7275;50.328;8.720;2024-01-10T08:36:02;100961.31;;;2.23;35.98
14383;BME280;7275;50.328;8.720;2024-01-10T08:38:30;100967.56;;;2.31;35.99
14383;BME280;7275;50.328;8.720;2024-01-10T08:40:58;100962.47;;;2.42;35.97
14383;BME280;7275;50.328;8.720;2024-01-10T08:43:25;100964.41;;;2.54;36.25
14383;BME280;7275;50.328;8.720;2024-01-10T08:45:54;100964.66;;;2.69;36.54
14383;BME280;7275;50.328;8.720;2024-01-10T08:48:21;100964.06;;;2.91;36.07
14383;BME280;7275;50.328;8.720;2024-01-10T08:50:50;100962.72;;;3.21;36.16
14383;BME280;7275;50.328;8.720;2024-01-10T08:53:17;100965.00;;;3.65;36.66
14383;BME280;7275;50.328;8.720;2024-01-10T08:55:45;100960.31;;;4.24;36.66
14383;BME280;7275;50.328;8.720;2024-01-10T08:58:14;100959.94;;;4.88;36.46
14383;BME280;7275;50.328;8.720;2024-01-10T09:00:41;100964.56;;;5.45;36.42
14383;BME280;7275;50.328;8.720;2024-01-10T09:03:10;100950.72;;;6.03;35.45
14383;BME280;7275;50.328;8.720;2024-01-10T09:05:38;100948.16;;;6.38;35.20
14383;BME280;7275;50.328;8.720;2024-01-10T09:08:10;100948.09;;;6.68;34.41
14383;BME280;7275;50.328;8.720;2024-01-10T09:10:38;100956.81;;;6.96;33.89
14383;BME280;7275;50.328;8.720;2024-01-10T09:13:05;100955.00;;;7.17;33.91
14383;BME280;7275;50.328;8.720;2024-01-10T09:15:33;100952.28;;;7.37;33.64
14383;BME280;7275;50.328;8.720;2024-01-10T09:18:00;100943.41;;;7.56;33.25
14383;BME280;7275;50.328;8.720;2024-01-10T09:20:31;100943.34;;;7.71;32.33
14383;BME280;7275;50.328;8.720;2024-01-10T09:22:58;100948.56;;;7.76;31.85
14383;BME280;7275;50.328;8.720;2024-01-10T09:25:27;100949.41;;;7.81;31.96
14383;BME280;7275;50.328;8.720;2024-01-10T09:27:54;100954.59;;;7.91;32.01
14383;BME280;7275;50.328;8.720;2024-01-10T09:30:22;100957.22;;;7.94;31.63
14383;BME280;7275;50.328;8.720;2024-01-10T09:32:50;100947.63;;;7.87;31.36
14383;BME280;7275;50.328;8.720;2024-01-10T09:35:18;100949.47;;;7.73;31.34
14383;BME280;7275;50.328;8.720;2024-01-10T09:37:47;100948.69;;;7.59;31.27
14383;BME280;7275;50.328;8.720;2024-01-10T09:40:15;100957.50;;;7.45;31.12
14383;BME280;7275;50.328;8.720;2024-01-10T09:42:44;100956.69;;;7.24;31.27
14383;BME280;7275;50.328;8.720;2024-01-10T09:45:11;100953.25;;;7.07;31.27
14383;BME280;7275;50.328;8.720;2024-01-10T09:47:39;100951.56;;;6.94;31.66
14383;BME280;7275;50.328;8.720;2024-01-10T09:50:10;100964.72;;;6.81;31.32
14383;BME280;7275;50.328;8.720;2024-01-10T09:52:41;100962.09;;;6.70;31.27
14383;BME280;7275;50.328;8.720;2024-01-10T09:55:13;100960.38;;;6.65;31.59
14383;BME280;7275;50.328;8.720;2024-01-10T09:57:42;100963.00;;;6.60;31.62
14383;BME280;7275;50.328;8.720;2024-01-10T10:00:11;100968.25;;;6.62;31.69
14383;BME280;7275;50.328;8.720;2024-01-10T10:02:39;100970.88;;;6.63;31.96
14383;BME280;7275;50.328;8.720;2024-01-10T10:05:08;100969.09;;;6.64;31.82
14383;BME280;7275;50.328;8.720;2024-01-10T10:07:46;100965.59;;;6.66;31.70
14383;BME280;7275;50.328;8.720;2024-01-10T10:10:16;100958.59;;;6.68;31.76
14383;BME280;7275;50.328;8.720;2024-01-10T10:12:44;100961.25;;;6.71;31.74
14383;BME280;7275;50.328;8.720;2024-01-10T10:15:13;100960.34;;;6.75;31.67
14383;BME280;7275;50.328;8.720;2024-01-10T10:17:43;100957.69;;;6.83;31.54
14383;BME280;7275;50.328;8.720;2024-01-10T10:20:14;100957.69;;;6.89;31.75
14383;BME280;7275;50.328;8.720;2024-01-10T10:23:01;100956.84;;;6.88;31.46
14383;BME280;7275;50.328;8.720;2024-01-10T10:25:33;100948.94;;;6.84;31.45
14383;BME280;7275;50.328;8.720;2024-01-10T10:28:02;100953.31;;;6.80;31.49
14383;BME280;7275;50.328;8.720;2024-01-10T10:30:32;100953.34;;;6.74;31.51
14383;BME280;7275;50.328;8.720;2024-01-10T10:33:01;100949.84;;;6.71;31.65
14383;BME280;7275;50.328;8.720;2024-01-10T10:35:29;100949.84;;;6.66;31.67
14383;BME280;7275;50.328;8.720;2024-01-10T10:38:07;100950.75;;;6.59;31.59
14383;BME280;7275;50.328;8.720;2024-01-10T10:40:37;100950.72;;;6.53;31.90
14383;BME280;7275;50.328;8.720;2024-01-10T10:43:12;100950.75;;;6.49;31.59
14383;BME280;7275;50.328;8.720;2024-01-10T10:45:46;100948.13;;;6.45;31.60
14383;BME280;7275;50.328;8.720;2024-01-10T10:48:16;100943.75;;;6.43;32.11
14383;BME280;7275;50.328;8.720;2024-01-10T10:50:50;100935.88;;;6.46;31.73
14383;BME280;7275;50.328;8.720;2024-01-10T10:53:22;100942.88;;;6.50;32.17
14383;BME280;7275;50.328;8.720;2024-01-10T10:55:53;100937.59;;;6.47;31.95
14383;BME280;7275;50.328;8.720;2024-01-10T10:58:22;100941.97;;;6.51;32.09
14383;BME280;7275;50.328;8.720;2024-01-10T11:00:51;100937.59;;;6.56;32.00
14383;BME280;7275;50.328;8.720;2024-01-10T11:03:20;100938.47;;;6.66;32.24
14383;BME280;7275;50.328;8.720;2024-01-10T11:05:49;100935.81;;;6.81;32.41
14383;BME280;7275;50.328;8.720;2024-01-10T11:08:19;100928.75;;;7.02;32.22
14383;BME280;7275;50.328;8.720;2024-01-10T11:10:52;100930.38;;;7.29;32.27
14383;BME280;7275;50.328;8.720;2024-01-10T11:13:27;100922.41;;;7.46;31.82
14383;BME280;7275;50.328;8.720;2024-01-10T11:16:27;100917.09;;;7.56;31.77
14383;BME280;7275;50.328;8.720;2024-01-10T11:19:19;100912.72;;;7.57;31.57
14383;BME280;7275;50.328;8.720;2024-01-10T11:22:03;100914.50;;;7.52;31.44
14383;BME280;7275;50.328;8.720;2024-01-10T11:24:36;100911.88;;;7.50;31.75
14383;BME280;7275;50.328;8.720;2024-01-10T11:27:10;100913.63;;;7.50;31.56
14383;BME280;7275;50.328;8.720;2024-01-10T11:29:39;100911.00;;;7.45;31.77
14383;BME280;7275;50.328;8.720;2024-01-10T11:32:07;100913.66;;;7.41;31.55
14383;BME280;7275;50.328;8.720;2024-01-10T11:34:36;100905.81;;;7.35;31.60
14383;BME280;7275;50.328;8.720;2024-01-10T11:37:11;100909.38;;;7.28;31.85
14383;BME280;7275;50.328;8.720;2024-01-10T11:39:41;100901.50;;;7.18;32.01
14383;BME280;7275;50.328;8.720;2024-01-10T11:42:10;100892.78;;;7.15;31.94
14383;BME280;7275;50.328;8.720;2024-01-10T11:44:48;100902.41;;;7.13;32.17
14383;BME280;7275;50.328;8.720;2024-01-10T11:47:16;100898.91;;;7.17;31.87
14383;BME280;7275;50.328;8.720;2024-01-10T11:49:54;100890.97;;;7.20;32.01
14383;BME280;7275;50.328;8.720;2024-01-10T11:52:22;100896.25;;;7.21;31.95
14383;BME280;7275;50.328;8.720;2024-01-10T11:54:50;100891.81;;;7.30;32.29
14383;BME280;7275;50.328;8.720;2024-01-10T11:57:25;100893.50;;;7.44;32.09
14383;BME280;7275;50.328;8.720;2024-01-10T11:59:56;100888.91;;;7.72;32.19
14383;BME280;7275;50.328;8.720;2024-01-10T12:02:26;100885.19;;;8.01;32.27
14383;BME280;7275;50.328;8.720;2024-01-10T12:04:54;100879.53;;;8.50;32.33
14383;BME280;7275;50.328;8.720;2024-01-10T12:07:22;100878.94;;;9.01;32.11
14383;BME280;7275;50.328;8.720;2024-01-10T12:09:52;100878.03;;;9.69;32.38
14383;BME280;7275;50.328;8.720;2024-01-10T12:12:19;100876.31;;;10.23;31.57
14383;BME280;7275;50.328;8.720;2024-01-10T12:14:50;100864.66;;;10.82;30.89
14383;BME280;7275;50.328;8.720;2024-01-10T12:17:18;100870.56;;;11.75;30.73
14383;BME280;7275;50.328;8.720;2024-01-10T12:19:46;100850.34;;;12.74;29.95
14383;BME280;7275;50.328;8.720;2024-01-10T12:22:16;100842.94;;;13.74;28.50
14383;BME280;7275;50.328;8.720;2024-01-10T12:24:44;100846.56;;;14.52;27.93
14383;BME280;7275;50.328;8.720;2024-01-10T12:27:12;100838.94;;;15.13;27.00
14383;BME280;7275;50.328;8.720;2024-01-10T12:29:40;100837.88;;;15.64;26.50
14383;BME280;7275;50.328;8.720;2024-01-10T12:32:09;100842.16;;;15.68;25.62
14383;BME280;7275;50.328;8.720;2024-01-10T12:34:40;100836.78;;;15.46;25.48
14383;BME280;7275;50.328;8.720;2024-01-10T12:37:10;100839.22;;;15.06;25.13
14383;BME280;7275;50.328;8.720;2024-01-10T12:39:38;100831.03;;;14.64;25.11
14383;BME280;7275;50.328;8.720;2024-01-10T12:42:05;100831.88;;;14.14;25.27
14383;BME280;7275;50.328;8.720;2024-01-10T12:44:33;100836.88;;;13.69;25.37
14383;BME280;7275;50.328;8.720;2024-01-10T12:47:01;100842.84;;;13.20;25.41
14383;BME280;7275;50.328;8.720;2024-01-10T12:49:30;100847.69;;;12.74;25.81
14383;BME280;7275;50.328;8.720;2024-01-10T12:51:58;100847.13;;;12.29;26.22
14383;BME280;7275;50.328;8.720;2024-01-10T12:54:25;100854.06;;;12.01;26.54
14383;BME280;7275;50.328;8.720;2024-01-10T12:56:53;100848.50;;;11.76;26.78
14383;BME280;7275;50.328;8.720;2024-01-10T12:59:22;100844.59;;;11.53;26.64
14383;BME280;7275;50.328;8.720;2024-01-10T13:01:49;100848.66;;;11.29;27.18
14383;BME280;7275;50.328;8.720;2024-01-10T13:04:17;100848.13;;;11.12;27.13
14383;BME280;7275;50.328;8.720;2024-01-10T13:06:47;100845.81;;;10.97;27.35
14383;BME280;7275;50.328;8.720;2024-01-10T13:09:14;100845.81;;;10.97;27.65
14383;BME280;7275;50.328;8.720;2024-01-10T13:11:42;100851.44;;;11.23;27.47
14383;BME280;7275;50.328;8.720;2024-01-10T13:14:11;100846.41;;;11.51;27.68
14383;BME280;7275;50.328;8.720;2024-01-10T13:16:39;100840.25;;;11.88;27.46
14383;BME280;7275;50.328;8.720;2024-01-10T13:19:22;100835.16;;;12.15;27.11